sensor_id;sensor_type;location;lat;lon;timestamp;temperature;humidity
29917;DHT22;16786;49.466;11.068;2023-01-28T00:00:53;1.00;99.90
29917;DHT22;16786;49.466;11.068;2023-01-28T00:03:20;1.00;99.90
29917;DHT22;16786;49.466;11.068;2023-01-28T00:05:48;1.00;99.90
29917;DHT22;16786;49.466;11.068;2023-01-28T00:08:15;1.00;99.90
29917;DHT22;16786;49.466;11.068;2023-01-28T00:10:43;1.00;99.90
29917;DHT22;16786;49.466;11.068;2023-01-28T00:13:11;1.00;99.90
29917;DHT22;16786;49.466;11.068;2023-01-28T00:15:42;1.00;99.90
29917;DHT22;16786;49.466;11.068;2023-01-28T00:18:09;1.00;99.90
29917;DHT22;16786;49.466;11.068;2023-01-28T00:20:36;1.00;99.90
29917;DHT22;16786;49.466;11.068;2023-01-28T00:23:04;1.10;99.90
29917;DHT22;16786;49.466;11.068;2023-01-28T00:25:31;1.10;99.90
29917;DHT22;16786;49.466;11.068;2023-01-28T00:27:59;1.10;99.90
29917;DHT22;16786;49.466;11.068;2023-01-28T00:30:26;1.10;99.90
29917;DHT22;16786;49.466;11.068;2023-01-28T00:32:55;1.10;99.90
29917;DHT22;16786;49.466;11.068;2023-01-28T00:35:22;1.10;99.90
29917;DHT22;16786;49.466;11.068;2023-01-28T00:37:49;1.10;99.90
29917;DHT22;16786;49.466;11.068;2023-01-28T00:40:17;1.10;99.90
29917;DHT22;16786;49.466;11.068;2023-01-28T00:42:45;1.10;99.90
29917;DHT22;16786;49.466;11.068;2023-01-28T00:45:13;1.10;99.90
29917;DHT22;16786;49.466;11.068;2023-01-28T00:47:41;1.10;99.90
29917;DHT22;16786;49.466;11.068;2023-01-28T00:50:11;1.10;99.90
29917;DHT22;16786;49.466;11.068;2023-01-28T00:52:39;1.10;99.90
29917;DHT22;16786;49.466;11.068;2023-01-28T00:55:07;1.10;99.90
29917;DHT22;16786;49.466;11.068;2023-01-28T00:57:37;1.10;99.90
29917;DHT22;16786;49.466;11.068;2023-01-28T01:00:05;1.20;99.90
29917;DHT22;16786;49.466;11.068;2023-01-28T01:02:32;1.20;99.90
29917;DHT22;16786;49.466;11.068;2023-01-28T01:04:59;1.20;99.90
29917;DHT22;16786;49.466;11.068;2023-01-28T01:07:40;1.20;99.90
29917;DHT22;16786;49.466;11.068;2023-01-28T01:10:12;1.20;99.90
29917;DHT22;16786;49.466;11.068;2023-01-28T01:12:40;1.20;99.90
29917;DHT22;16786;49.466;11.068;2023-01-28T01:15:08;1.20;99.90
29917;DHT22;16786;49.466;11.068;2023-01-28T01:17:37;1.20;99.90
29917;DHT22;16786;49.466;11.068;2023-01-28T01:20:08;1.20;99.90
29917;DHT22;16786;49.466;11.068;2023-01-28T01:22:36;1.20;99.90
29917;DHT22;16786;49.466;11.068;2023-01-28T01:25:04;1.20;99.90
29917;DHT22;16786;49.466;11.068;2023-01-28T01:27:32;1.20;99.90
29917;DHT22;16786;49.466;11.068;2023-01-28T01:29:59;1.20;99.90
29917;DHT22;16786;49.466;11.068;2023-01-28T01:32:32;1.20;99.90
29917;DHT22;16786;49.466;11.068;2023-01-28T01:35:01;1.20;99.90
29917;DHT22;16786;49.466;11.068;2023-01-28T01:37:29;1.20;99.90
29917;DHT22;16786;49.466;11.068;2023-01-28T01:39:56;1.10;99.90
29917;DHT22;16786;49.466;11.068;2023-01-28T01:42:24;1.20;99.90
29917;DHT22;16786;49.466;11.068;2023-01-28T01:52:53;1.20;99.90
29917;DHT22;16786;49.466;11.068;2023-01-28T01:55:23;1.20;99.90
29917;DHT22;16786;49.466;11.068;2023-01-28T01:57:53;1.20;99.90
29917;DHT22;16786;49.466;11.068;2023-01-28T02:00:23;1.20;99.90
29917;DHT22;16786;49.466;11.068;2023-01-28T02:02:51;1.20;99.90
29917;DHT22;16786;49.466;11.068;2023-01-28T02:05:21;1.20;99.90
29917;DHT22;16786;49.466;11.068;2023-01-28T02:07:51;1.20;99.90
29917;DHT22;16786;49.466;11.068;2023-01-28T02:10:21;1.20;99.90
29917;DHT22;16786;49.466;11.068;2023-01-28T02:12:53;1.20;99.90
29917;DHT22;16786;49.466;11.068;2023-01-28T02:15:25;1.20;99.90
29917;DHT22;16786;49.466;11.068;2023-01-28T02:17:56;1.20;99.90
29917;DHT22;16786;49.466;11.068;2023-01-28T02:26:22;1.20;99.90
29917;DHT22;16786;49.466;11.068;2023-01-28T02:31:53;1.20;99.90
29917;DHT22;16786;49.466;11.068;2023-01-28T02:34:43;1.30;99.90
29917;DHT22;16786;49.466;11.068;2023-01-28T02:37:16;1.20;99.90
29917;DHT22;16786;49.466;11.068;2023-01-28T02:39:50;1.20;99.90
29917;DHT22;16786;49.466;11.068;2023-01-28T02:42:29;1.20;99.90
29917;DHT22;16786;49.466;11.068;2023-01-28T02:44:57;1.30;99.90
29917;DHT22;16786;49.466;11.068;2023-01-28T02:47:25;1.30;99.90
29917;DHT22;16786;49.466;11.068;2023-01-28T02:50:13;1.30;99.90
29917;DHT22;16786;49.466;11.068;2023-01-28T02:56:06;1.30;99.90
29917;DHT22;16786;49.466;11.068;2023-01-28T03:01:26;1.30;99.90
29917;DHT22;16786;49.466;11.068;2023-01-28T03:04:13;1.30;99.90
29917;DHT22;16786;49.466;11.068;2023-01-28T03:06:49;1.30;99.90
29917;DHT22;16786;49.466;11.068;2023-01-28T03:09:18;1.40;99.90
29917;DHT22;16786;49.466;11.068;2023-01-28T03:14:39;1.40;99.90
29917;DHT22;16786;49.466;11.068;2023-01-28T03:20:26;1.30;99.90
29917;DHT22;16786;49.466;11.068;2023-01-28T03:23:17;1.30;99.90
29917;DHT22;16786;49.466;11.068;2023-01-28T03:26:07;1.30;99.90
29917;DHT22;16786;49.466;11.068;2023-01-28T03:28:54;1.30;99.90
29917;DHT22;16786;49.466;11.068;2023-01-28T03:31:40;1.40;99.90
29917;DHT22;16786;49.466;11.068;2023-01-28T03:34:27;1.40;99.90
29917;DHT22;16786;49.466;11.068;2023-01-28T03:37:13;1.30;99.90
29917;DHT22;16786;49.466;11.068;2023-01-28T03:39:47;1.30;99.90
29917;DHT22;16786;49.466;11.068;2023-01-28T03:42:14;1.30;99.90
29917;DHT22;16786;49.466;11.068;2023-01-28T03:44:53;1.30;99.90
29917;DHT22;16786;49.466;11.068;2023-01-28T03:47:26;1.30;99.90
29917;DHT22;16786;49.466;11.068;2023-01-28T03:49:55;1.30;99.90
29917;DHT22;16786;49.466;11.068;2023-01-28T03:52:25;1.30;99.90
29917;DHT22;16786;49.466;11.068;2023-01-28T03:55:01;1.30;99.90
29917;DHT22;16786;49.466;11.068;2023-01-28T03:57:40;1.30;99.90
29917;DHT22;16786;49.466;11.068;2023-01-28T04:00:08;1.40;99.90
29917;DHT22;16786;49.466;11.068;2023-01-28T04:02:43;1.30;99.90
29917;DHT22;16786;49.466;11.068;2023-01-28T04:05:13;1.30;99.90
29917;DHT22;16786;49.466;11.068;2023-01-28T04:07:47;1.30;99.90
29917;DHT22;16786;49.466;11.068;2023-01-28T04:10:37;1.40;99.90
29917;DHT22;16786;49.466;11.068;2023-01-28T04:13:11;1.30;99.90
29917;DHT22;16786;49.466;11.068;2023-01-28T04:15:41;1.30;99.90
29917;DHT22;16786;49.466;11.068;2023-01-28T04:18:11;1.30;99.90
29917;DHT22;16786;49.466;11.068;2023-01-28T04:20:38;1.30;99.90
29917;DHT22;16786;49.466;11.068;2023-01-28T04:23:06;1.30;99.90
29917;DHT22;16786;49.466;11.068;2023-01-28T04:25:34;1.30;99.90
29917;DHT22;16786;49.466;11.068;2023-01-28T04:28:05;1.30;99.90
29917;DHT22;16786;49.466;11.068;2023-01-28T04:30:33;1.30;99.90
29917;DHT22;16786;49.466;11.068;2023-01-28T04:33:06;1.30;99.90
29917;DHT22;16786;49.466;11.068;2023-01-28T04:35:52;1.30;99.90
29917;DHT22;16786;49.466;11.068;2023-01-28T04:38:40;1.20;99.90
29917;DHT22;16786;49.466;11.068;2023-01-28T04:41:26;1.20;99.90
29917;DHT22;16786;49.466;11.068;2023-01-28T04:43:57;1.20;99.90
29917;DHT22;16786;49.466;11.068;2023-01-28T04:46:24;1.20;99.90
29917;DHT22;16786;49.466;11.068;2023-01-28T04:49:01;1.20;99.90
29917;DHT22;16786;49.466;11.068;2023-01-28T04:51:39;1.20;99.90
29917;DHT22;16786;49.466;11.068;2023-01-28T04:54:30;1.20;99.90
29917;DHT22;16786;49.466;11.068;2023-01-28T04:57:00;1.20;99.90
29917;DHT22;16786;49.466;11.068;2023-01-28T04:59:28;1.20;99.90
29917;DHT22;16786;49.466;11.068;2023-01-28T05:01:55;1.20;99.90
29917;DHT22;16786;49.466;11.068;2023-01-28T05:04:23;1.20;99.90
29917;DHT22;16786;49.466;11.068;2023-01-28T05:06:51;1.20;99.90
29917;DHT22;16786;49.466;11.068;2023-01-28T05:09:23;1.20;99.90
29917;DHT22;16786;49.466;11.068;2023-01-28T05:11:51;1.20;99.90
29917;DHT22;16786;49.466;11.068;2023-01-28T05:14:18;1.20;99.90
29917;DHT22;16786;49.466;11.068;2023-01-28T05:17:05;1.20;99.90
29917;DHT22;16786;49.466;11.068;2023-01-28T05:19:33;1.20;99.90
29917;DHT22;16786;49.466;11.068;2023-01-28T05:22:01;1.30;99.90
29917;DHT22;16786;49.466;11.068;2023-01-28T05:24:38;1.20;99.90
29917;DHT22;16786;49.466;11.068;2023-01-28T05:27:06;1.20;99.90
29917;DHT22;16786;49.466;11.068;2023-01-28T05:29:33;1.20;99.90
29917;DHT22;16786;49.466;11.068;2023-01-28T05:32:00;1.30;99.90
29917;DHT22;16786;49.466;11.068;2023-01-28T05:34:29;1.20;99.90
29917;DHT22;16786;49.466;11.068;2023-01-28T05:36:59;1.20;99.90
29917;DHT22;16786;49.466;11.068;2023-01-28T05:39:30;1.20;99.90
29917;DHT22;16786;49.466;11.068;2023-01-28T05:41:58;1.20;99.90
29917;DHT22;16786;49.466;11.068;2023-01-28T05:44:25;1.20;99.90
29917;DHT22;16786;49.466;11.068;2023-01-28T05:47:13;1.20;99.90
29917;DHT22;16786;49.466;11.068;2023-01-28T05:49:49;1.20;99.90
29917;DHT22;16786;49.466;11.068;2023-01-28T05:52:43;1.20;99.90
29917;DHT22;16786;49.466;11.068;2023-01-28T05:55:20;1.20;99.90
29917;DHT22;16786;49.466;11.068;2023-01-28T05:57:48;1.20;99.90
29917;DHT22;16786;49.466;11.068;2023-01-28T06:00:18;1.20;99.90
29917;DHT22;16786;49.466;11.068;2023-01-28T06:02:45;1.20;99.90
29917;DHT22;16786;49.466;11.068;2023-01-28T06:05:14;1.20;99.90
29917;DHT22;16786;49.466;11.068;2023-01-28T06:07:46;1.20;99.90
29917;DHT22;16786;49.466;11.068;2023-01-28T06:10:14;1.20;99.90
29917;DHT22;16786;49.466;11.068;2023-01-28T06:12:44;1.20;99.90
29917;DHT22;16786;49.466;11.068;2023-01-28T06:15:34;1.20;99.90
29917;DHT22;16786;49.466;11.068;2023-01-28T06:18:13;1.20;99.90
29917;DHT22;16786;49.466;11.068;2023-01-28T06:20:41;1.20;99.90
29917;DHT22;16786;49.466;11.068;2023-01-28T06:23:09;1.20;99.90
29917;DHT22;16786;49.466;11.068;2023-01-28T06:25:36;1.20;99.90
29917;DHT22;16786;49.466;11.068;2023-01-28T06:28:08;1.20;99.90
29917;DHT22;16786;49.466;11.068;2023-01-28T06:30:36;1.20;99.90
29917;DHT22;16786;49.466;11.068;2023-01-28T06:33:03;1.20;99.90
29917;DHT22;16786;49.466;11.068;2023-01-28T06:35:30;1.20;99.90
29917;DHT22;16786;49.466;11.068;2023-01-28T06:37:57;1.20;99.90
29917;DHT22;16786;49.466;11.068;2023-01-28T06:40:25;1.20;99.90
29917;DHT22;16786;49.466;11.068;2023-01-28T06:42:52;1.20;99.90
29917;DHT22;16786;49.466;11.068;2023-01-28T06:45:20;1.20;99.90
29917;DHT22;16786;49.466;11.068;2023-01-28T06:47:47;1.20;99.90
29917;DHT22;16786;49.466;11.068;2023-01-28T06:50:14;1.20;99.90
29917;DHT22;16786;49.466;11.068;2023-01-28T06:52:42;1.20;99.90
29917;DHT22;16786;49.466;11.068;2023-01-28T06:55:10;1.20;99.90
29917;DHT22;16786;49.466;11.068;2023-01-28T06:57:38;1.10;99.90
29917;DHT22;16786;49.466;11.068;2023-01-28T07:00:09;1.20;99.90
29917;DHT22;16786;49.466;11.068;2023-01-28T07:02:36;1.20;99.90
29917;DHT22;16786;49.466;11.068;2023-01-28T07:05:04;1.20;99.90
29917;DHT22;16786;49.466;11.068;2023-01-28T07:07:32;1.20;99.90
29917;DHT22;16786;49.466;11.068;2023-01-28T07:10:00;1.20;99.90
29917;DHT22;16786;49.466;11.068;2023-01-28T07:12:27;1.20;99.90
29917;DHT22;16786;49.466;11.068;2023-01-28T07:14:55;1.20;99.90
29917;DHT22;16786;49.466;11.068;2023-01-28T07:17:23;1.20;99.90
29917;DHT22;16786;49.466;11.068;2023-01-28T07:19:52;1.20;99.90
29917;DHT22;16786;49.466;11.068;2023-01-28T07:22:20;1.30;99.90
29917;DHT22;16786;49.466;11.068;2023-01-28T07:24:47;1.30;99.90
29917;DHT22;16786;49.466;11.068;2023-01-28T07:27:15;1.30;99.90
29917;DHT22;16786;49.466;11.068;2023-01-28T07:29:42;1.30;99.90
29917;DHT22;16786;49.466;11.068;2023-01-28T07:32:09;1.30;99.90
29917;DHT22;16786;49.466;11.068;2023-01-28T07:34:36;1.30;99.90
29917;DHT22;16786;49.466;11.068;2023-01-28T07:37:05;1.30;99.90
29917;DHT22;16786;49.466;11.068;2023-01-28T07:39:33;1.40;99.90
29917;DHT22;16786;49.466;11.068;2023-01-28T07:42:01;1.40;99.90
29917;DHT22;16786;49.466;11.068;2023-01-28T07:44:35;1.40;99.90
29917;DHT22;16786;49.466;11.068;2023-01-28T07:47:04;1.50;99.90
29917;DHT22;16786;49.466;11.068;2023-01-28T07:49:32;1.50;99.90
29917;DHT22;16786;49.466;11.068;2023-01-28T07:52:00;1.50;99.90
29917;DHT22;16786;49.466;11.068;2023-01-28T07:54:28;1.50;99.90
29917;DHT22;16786;49.466;11.068;2023-01-28T07:56:55;1.60;99.90
29917;DHT22;16786;49.466;11.068;2023-01-28T07:59:22;1.60;99.90
29917;DHT22;16786;49.466;11.068;2023-01-28T08:01:50;1.60;99.90
29917;DHT22;16786;49.466;11.068;2023-01-28T08:04:20;1.70;99.90
29917;DHT22;16786;49.466;11.068;2023-01-28T08:06:48;1.70;99.90
29917;DHT22;16786;49.466;11.068;2023-01-28T08:09:15;1.70;99.90
29917;DHT22;16786;49.466;11.068;2023-01-28T08:11:42;1.70;99.90
29917;DHT22;16786;49.466;11.068;2023-01-28T08:14:10;1.70;99.90
29917;DHT22;16786;49.466;11.068;2023-01-28T08:16:37;1.80;99.90
29917;DHT22;16786;49.466;11.068;2023-01-28T08:19:05;1.80;99.90
29917;DHT22;16786;49.466;11.068;2023-01-28T08:21:32;1.80;99.90
29917;DHT22;16786;49.466;11.068;2023-01-28T08:23:59;1.80;99.90
29917;DHT22;16786;49.466;11.068;2023-01-28T08:26:27;1.80;99.90
29917;DHT22;16786;49.466;11.068;2023-01-28T08:28:54;1.90;99.90
29917;DHT22;16786;49.466;11.068;2023-01-28T08:31:21;2.00;99.90
29917;DHT22;16786;49.466;11.068;2023-01-28T08:33:49;2.00;99.90
29917;DHT22;16786;49.466;11.068;2023-01-28T08:36:16;2.00;99.90
29917;DHT22;16786;49.466;11.068;2023-01-28T08:38:43;2.00;99.90
29917;DHT22;16786;49.466;11.068;2023-01-28T08:41:10;2.00;99.90
29917;DHT22;16786;49.466;11.068;2023-01-28T08:43:38;2.00;99.90
29917;DHT22;16786;49.466;11.068;2023-01-28T08:46:05;2.10;99.90
29917;DHT22;16786;49.466;11.068;2023-01-28T08:48:33;2.10;99.90
29917;DHT22;16786;49.466;11.068;2023-01-28T08:51:01;2.10;99.90
29917;DHT22;16786;49.466;11.068;2023-01-28T08:53:28;2.20;99.90
29917;DHT22;16786;49.466;11.068;2023-01-28T08:55:55;2.30;99.90
29917;DHT22;16786;49.466;11.068;2023-01-28T08:58:22;2.30;99.90
29917;DHT22;16786;49.466;11.068;2023-01-28T09:00:50;2.40;99.90
29917;DHT22;16786;49.466;11.068;2023-01-28T09:03:17;2.50;99.90
29917;DHT22;16786;49.466;11.068;2023-01-28T09:05:44;2.50;99.90
29917;DHT22;16786;49.466;11.068;2023-01-28T09:08:13;2.40;99.90
29917;DHT22;16786;49.466;11.068;2023-01-28T09:10:41;2.40;99.90
29917;DHT22;16786;49.466;11.068;2023-01-28T09:13:11;2.40;99.90
29917;DHT22;16786;49.466;11.068;2023-01-28T09:15:39;2.50;99.90
29917;DHT22;16786;49.466;11.068;2023-01-28T09:18:06;2.60;99.90
29917;DHT22;16786;49.466;11.068;2023-01-28T09:20:34;2.60;99.90
29917;DHT22;16786;49.466;11.068;2023-01-28T09:23:03;2.60;99.90
29917;DHT22;16786;49.466;11.068;2023-01-28T09:25:30;2.70;99.90
29917;DHT22;16786;49.466;11.068;2023-01-28T09:27:58;2.70;99.90
29917;DHT22;16786;49.466;11.068;2023-01-28T09:30:25;2.80;99.90
29917;DHT22;16786;49.466;11.068;2023-01-28T09:32:53;2.80;99.90
29917;DHT22;16786;49.466;11.068;2023-01-28T09:35:21;2.90;99.90
29917;DHT22;16786;49.466;11.068;2023-01-28T09:37:49;2.90;99.90
29917;DHT22;16786;49.466;11.068;2023-01-28T09:40:20;2.90;99.90
29917;DHT22;16786;49.466;11.068;2023-01-28T09:45:48;2.90;99.90
29917;DHT22;16786;49.466;11.068;2023-01-28T09:48:18;2.80;99.90
29917;DHT22;16786;49.466;11.068;2023-01-28T09:50:52;2.90;99.90
29917;DHT22;16786;49.466;11.068;2023-01-28T09:53:22;2.80;99.90
29917;DHT22;16786;49.466;11.068;2023-01-28T09:55:55;2.80;99.90
29917;DHT22;16786;49.466;11.068;2023-01-28T09:58:22;2.80;99.90
29917;DHT22;16786;49.466;11.068;2023-01-28T10:01:27;2.90;99.90
29917;DHT22;16786;49.466;11.068;2023-01-28T10:04:41;3.00;99.90
29917;DHT22;16786;49.466;11.068;2023-01-28T10:10:10;3.20;99.90
29917;DHT22;16786;49.466;11.068;2023-01-28T10:12:49;3.30;99.90
29917;DHT22;16786;49.466;11.068;2023-01-28T10:18:32;3.40;99.90
29917;DHT22;16786;49.466;11.068;2023-01-28T10:21:10;3.40;99.90
29917;DHT22;16786;49.466;11.068;2023-01-28T10:26:34;3.40;99.90
29917;DHT22;16786;49.466;11.068;2023-01-28T10:29:13;3.40;99.90
29917;DHT22;16786;49.466;11.068;2023-01-28T10:34:26;3.60;99.90
29917;DHT22;16786;49.466;11.068;2023-01-28T10:36:56;3.50;99.90
29917;DHT22;16786;49.466;11.068;2023-01-28T10:39:25;3.60;99.90
29917;DHT22;16786;49.466;11.068;2023-01-28T10:41:52;3.70;99.90
29917;DHT22;16786;49.466;11.068;2023-01-28T10:44:34;3.80;99.90
29917;DHT22;16786;49.466;11.068;2023-01-28T10:47:32;4.00;99.90
29917;DHT22;16786;49.466;11.068;2023-01-28T10:49:57;4.20;99.90
29917;DHT22;16786;49.466;11.068;2023-01-28T10:52:25;4.50;99.90
29917;DHT22;16786;49.466;11.068;2023-01-28T10:55:04;4.70;99.90
29917;DHT22;16786;49.466;11.068;2023-01-28T10:57:32;4.80;99.90
29917;DHT22;16786;49.466;11.068;2023-01-28T11:00:34;4.80;99.90
29917;DHT22;16786;49.466;11.068;2023-01-28T11:03:03;4.90;99.90
29917;DHT22;16786;49.466;11.068;2023-01-28T11:05:30;5.10;99.90
29917;DHT22;16786;49.466;11.068;2023-01-28T11:08:13;5.30;99.90
29917;DHT22;16786;49.466;11.068;2023-01-28T11:10:42;5.40;99.90
29917;DHT22;16786;49.466;11.068;2023-01-28T11:13:26;5.40;99.90
29917;DHT22;16786;49.466;11.068;2023-01-28T11:16:00;5.10;99.90
29917;DHT22;16786;49.466;11.068;2023-01-28T11:18:33;5.00;99.90
29917;DHT22;16786;49.466;11.068;2023-01-28T11:21:05;4.80;99.90
29917;DHT22;16786;49.466;11.068;2023-01-28T11:23:36;4.80;99.90
29917;DHT22;16786;49.466;11.068;2023-01-28T11:26:14;4.60;99.90
29917;DHT22;16786;49.466;11.068;2023-01-28T11:28:43;4.50;99.90
29917;DHT22;16786;49.466;11.068;2023-01-28T11:31:14;4.30;99.90
29917;DHT22;16786;49.466;11.068;2023-01-28T11:33:49;4.20;99.90
29917;DHT22;16786;49.466;11.068;2023-01-28T11:36:21;4.20;99.90
29917;DHT22;16786;49.466;11.068;2023-01-28T11:41:35;4.00;99.90
29917;DHT22;16786;49.466;11.068;2023-01-28T11:44:19;4.00;99.90
29917;DHT22;16786;49.466;11.068;2023-01-28T11:47:02;3.90;99.90
29917;DHT22;16786;49.466;11.068;2023-01-28T12:10:37;4.10;99.90
29917;DHT22;16786;49.466;11.068;2023-01-28T12:13:40;4.00;99.90
29917;DHT22;16786;49.466;11.068;2023-01-28T12:19:32;4.00;99.90
29917;DHT22;16786;49.466;11.068;2023-01-28T12:35:20;3.40;99.90
29917;DHT22;16786;49.466;11.068;2023-01-28T12:37:57;3.40;99.90
29917;DHT22;16786;49.466;11.068;2023-01-28T12:43:37;3.20;99.90
29917;DHT22;16786;49.466;11.068;2023-01-28T12:48:47;3.10;99.90
29917;DHT22;16786;49.466;11.068;2023-01-28T12:51:27;3.10;99.90
29917;DHT22;16786;49.466;11.068;2023-01-28T12:56:34;2.90;99.90
29917;DHT22;16786;49.466;11.068;2023-01-28T12:59:12;3.00;99.90
29917;DHT22;16786;49.466;11.068;2023-01-28T13:01:44;2.90;99.90
29917;DHT22;16786;49.466;11.068;2023-01-28T13:05:24;2.90;99.90
29917;DHT22;16786;49.466;11.068;2023-01-28T13:10:28;3.10;99.90
29917;DHT22;16786;49.466;11.068;2023-01-28T13:12:56;3.10;99.90
29917;DHT22;16786;49.466;11.068;2023-01-28T13:15:25;3.10;99.90
29917;DHT22;16786;49.466;11.068;2023-01-28T13:17:58;3.20;99.90
29917;DHT22;16786;49.466;11.068;2023-01-28T13:20:56;3.20;99.90
29917;DHT22;16786;49.466;11.068;2023-01-28T13:23:38;3.30;99.90
29917;DHT22;16786;49.466;11.068;2023-01-28T13:26:30;3.40;99.90
29917;DHT22;16786;49.466;11.068;2023-01-28T13:29:19;3.30;99.90
29917;DHT22;16786;49.466;11.068;2023-01-28T13:31:49;3.40;99.90
29917;DHT22;16786;49.466;11.068;2023-01-28T13:34:40;3.40;99.90
29917;DHT22;16786;49.466;11.068;2023-01-28T13:37:27;3.40;99.90
29917;DHT22;16786;49.466;11.068;2023-01-28T13:42:41;3.40;99.90
29917;DHT22;16786;49.466;11.068;2023-01-28T13:47:47;3.40;99.90
29917;DHT22;16786;49.466;11.068;2023-01-28T13:50:25;3.50;99.90
29917;DHT22;16786;49.466;11.068;2023-01-28T13:53:17;3.60;99.90
29917;DHT22;16786;49.466;11.068;2023-01-28T13:55:48;3.50;99.90
29917;DHT22;16786;49.466;11.068;2023-01-28T13:59:34;3.50;99.90
29917;DHT22;16786;49.466;11.068;2023-01-28T14:13:04;3.50;99.90
29917;DHT22;16786;49.466;11.068;2023-01-28T14:15:48;3.40;99.90
29917;DHT22;16786;49.466;11.068;2023-01-28T14:18:28;3.30;99.90
29917;DHT22;16786;49.466;11.068;2023-01-28T14:21:01;3.20;99.90
29917;DHT22;16786;49.466;11.068;2023-01-28T14:23:29;3.10;99.90
29917;DHT22;16786;49.466;11.068;2023-01-28T14:31:41;3.00;99.90
29917;DHT22;16786;49.466;11.068;2023-01-28T14:36:40;2.80;99.90
29917;DHT22;16786;49.466;11.068;2023-01-28T14:39:21;2.80;99.90
29917;DHT22;16786;49.466;11.068;2023-01-28T14:41:54;2.70;99.90
29917;DHT22;16786;49.466;11.068;2023-01-28T14:44:35;2.70;99.90
29917;DHT22;16786;49.466;11.068;2023-01-28T14:55:23;2.30;99.90
29917;DHT22;16786;49.466;11.068;2023-01-28T14:57:57;2.40;99.90
29917;DHT22;16786;49.466;11.068;2023-01-28T15:00:28;2.30;99.90
29917;DHT22;16786;49.466;11.068;2023-01-28T15:02:56;2.10;99.90
29917;DHT22;16786;49.466;11.068;2023-01-28T15:05:26;2.10;99.90
29917;DHT22;16786;49.466;11.068;2023-01-28T15:07:54;2.00;99.90
29917;DHT22;16786;49.466;11.068;2023-01-28T15:10:34;1.90;99.90
29917;DHT22;16786;49.466;11.068;2023-01-28T15:13:29;1.90;99.90
29917;DHT22;16786;49.466;11.068;2023-01-28T15:15:58;1.80;99.90
29917;DHT22;16786;49.466;11.068;2023-01-28T15:18:53;1.80;99.90
29917;DHT22;16786;49.466;11.068;2023-01-28T15:21:23;1.80;99.90
29917;DHT22;16786;49.466;11.068;2023-01-28T15:23:55;1.70;99.90
29917;DHT22;16786;49.466;11.068;2023-01-28T15:26:23;1.60;99.90
29917;DHT22;16786;49.466;11.068;2023-01-28T15:28:53;1.60;99.90
29917;DHT22;16786;49.466;11.068;2023-01-28T15:31:27;1.50;99.90
29917;DHT22;16786;49.466;11.068;2023-01-28T15:34:12;1.50;99.90
29917;DHT22;16786;49.466;11.068;2023-01-28T15:36:40;1.40;99.90
29917;DHT22;16786;49.466;11.068;2023-01-28T15:39:20;1.30;99.90
29917;DHT22;16786;49.466;11.068;2023-01-28T15:41:54;1.30;99.90
29917;DHT22;16786;49.466;11.068;2023-01-28T15:46:55;1.30;99.90
29917;DHT22;16786;49.466;11.068;2023-01-28T15:49:26;1.20;99.90
29917;DHT22;16786;49.466;11.068;2023-01-28T15:51:54;1.20;99.90
29917;DHT22;16786;49.466;11.068;2023-01-28T15:54:22;1.10;99.90
29917;DHT22;16786;49.466;11.068;2023-01-28T15:56:50;1.10;99.90
29917;DHT22;16786;49.466;11.068;2023-01-28T15:59:26;1.10;99.90
29917;DHT22;16786;49.466;11.068;2023-01-28T16:05:05;1.20;99.90
29917;DHT22;16786;49.466;11.068;2023-01-28T16:07:44;1.10;99.90
29917;DHT22;16786;49.466;11.068;2023-01-28T16:10:26;1.10;99.90
29917;DHT22;16786;49.466;11.068;2023-01-28T16:13:04;1.10;99.90
29917;DHT22;16786;49.466;11.068;2023-01-28T16:15:32;1.00;99.90
29917;DHT22;16786;49.466;11.068;2023-01-28T16:18:00;1.00;99.90
29917;DHT22;16786;49.466;11.068;2023-01-28T16:20:30;1.00;99.90
29917;DHT22;16786;49.466;11.068;2023-01-28T16:23:02;1.00;99.90
29917;DHT22;16786;49.466;11.068;2023-01-28T16:25:34;0.90;99.90
29917;DHT22;16786;49.466;11.068;2023-01-28T16:28:16;0.90;99.90
29917;DHT22;16786;49.466;11.068;2023-01-28T16:30:44;0.90;99.90
29917;DHT22;16786;49.466;11.068;2023-01-28T16:33:19;0.80;99.90
29917;DHT22;16786;49.466;11.068;2023-01-28T16:35:47;0.90;99.90
29917;DHT22;16786;49.466;11.068;2023-01-28T16:38:33;0.80;99.90
29917;DHT22;16786;49.466;11.068;2023-01-28T16:41:00;0.90;99.90
29917;DHT22;16786;49.466;11.068;2023-01-28T16:43:28;0.90;99.90
29917;DHT22;16786;49.466;11.068;2023-01-28T16:45:55;0.90;99.90
29917;DHT22;16786;49.466;11.068;2023-01-28T16:48:23;0.80;99.90
29917;DHT22;16786;49.466;11.068;2023-01-28T16:50:50;0.70;99.90
29917;DHT22;16786;49.466;11.068;2023-01-28T16:53:28;0.70;99.90
29917;DHT22;16786;49.466;11.068;2023-01-28T16:55:59;0.70;99.90
29917;DHT22;16786;49.466;11.068;2023-01-28T16:58:26;0.60;99.90
29917;DHT22;16786;49.466;11.068;2023-01-28T17:00:58;0.70;99.90
29917;DHT22;16786;49.466;11.068;2023-01-28T17:03:25;0.70;99.90
29917;DHT22;16786;49.466;11.068;2023-01-28T17:05:53;0.70;99.90
29917;DHT22;16786;49.466;11.068;2023-01-28T17:08:20;0.70;99.90
29917;DHT22;16786;49.466;11.068;2023-01-28T17:10:55;0.60;99.90
29917;DHT22;16786;49.466;11.068;2023-01-28T17:13:23;0.70;99.90
29917;DHT22;16786;49.466;11.068;2023-01-28T17:15:50;0.70;99.90
29917;DHT22;16786;49.466;11.068;2023-01-28T17:18:19;0.60;99.90
29917;DHT22;16786;49.466;11.068;2023-01-28T17:20:46;0.60;99.90
29917;DHT22;16786;49.466;11.068;2023-01-28T17:23:15;0.70;99.90
29917;DHT22;16786;49.466;11.068;2023-01-28T17:25:42;0.60;99.90
29917;DHT22;16786;49.466;11.068;2023-01-28T17:28:10;0.70;99.90
29917;DHT22;16786;49.466;11.068;2023-01-28T17:30:38;0.60;99.90
29917;DHT22;16786;49.466;11.068;2023-01-28T17:33:07;0.70;99.90
29917;DHT22;16786;49.466;11.068;2023-01-28T17:35:35;0.70;99.90
29917;DHT22;16786;49.466;11.068;2023-01-28T17:38:03;0.60;99.90
29917;DHT22;16786;49.466;11.068;2023-01-28T17:40:31;0.60;99.90
29917;DHT22;16786;49.466;11.068;2023-01-28T17:42:59;0.60;99.90
29917;DHT22;16786;49.466;11.068;2023-01-28T17:45:29;0.60;99.90
29917;DHT22;16786;49.466;11.068;2023-01-28T17:47:57;0.70;99.90
29917;DHT22;16786;49.466;11.068;2023-01-28T17:50:24;0.60;99.90
29917;DHT22;16786;49.466;11.068;2023-01-28T17:52:53;0.60;99.90
29917;DHT22;16786;49.466;11.068;2023-01-28T17:55:22;0.60;99.90
29917;DHT22;16786;49.466;11.068;2023-01-28T17:57:50;0.60;99.90
29917;DHT22;16786;49.466;11.068;2023-01-28T18:00:18;0.60;99.90
29917;DHT22;16786;49.466;11.068;2023-01-28T18:02:48;0.50;99.90
29917;DHT22;16786;49.466;11.068;2023-01-28T18:05:16;0.50;99.90
29917;DHT22;16786;49.466;11.068;2023-01-28T18:07:44;0.50;99.90
29917;DHT22;16786;49.466;11.068;2023-01-28T18:10:13;0.50;99.90
29917;DHT22;16786;49.466;11.068;2023-01-28T18:12:41;0.40;99.90
29917;DHT22;16786;49.466;11.068;2023-01-28T18:15:09;0.40;99.90